sensor_id;sensor_type;location;lat;lon;timestamp;P1;durP1;ratioP1;P2;durP2;ratioP2
13090;SDS011;6611;52.604;13.438;2023-03-23T00:02:46;2.73;;;1.23;;
13090;SDS011;6611;52.604;13.438;2023-03-23T00:07:48;1.53;;;1.10;;
13090;SDS011;6611;52.604;13.438;2023-03-23T00:12:53;1.10;;;1.00;;
13090;SDS011;6611;52.604;13.438;2023-03-23T00:17:57;3.77;;;1.13;;
13090;SDS011;6611;52.604;13.438;2023-03-23T00:23:02;1.20;;;1.10;;
13090;SDS011;6611;52.604;13.438;2023-03-23T00:28:05;1.30;;;1.13;;
13090;SDS011;6611;52.604;13.438;2023-03-23T00:33:07;1.50;;;1.27;;
13090;SDS011;6611;52.604;13.438;2023-03-23T00:38:12;1.90;;;0.90;;
13090;SDS011;6611;52.604;13.438;2023-03-23T00:43:15;1.40;;;1.23;;
13090;SDS011;6611;52.604;13.438;2023-03-23T00:48:18;2.33;;;1.30;;
13090;SDS011;6611;52.604;13.438;2023-03-23T00:53:20;1.37;;;1.10;;
13090;SDS011;6611;52.604;13.438;2023-03-23T00:58:23;1.23;;;1.13;;
13090;SDS011;6611;52.604;13.438;2023-03-23T01:03:25;1.20;;;1.10;;
13090;SDS011;6611;52.604;13.438;2023-03-23T01:08:28;1.40;;;1.00;;
13090;SDS011;6611;52.604;13.438;2023-03-23T01:13:32;1.10;;;1.00;;
13090;SDS011;6611;52.604;13.438;2023-03-23T01:18:34;1.90;;;1.50;;
13090;SDS011;6611;52.604;13.438;2023-03-23T01:23:36;1.27;;;1.10;;
13090;SDS011;6611;52.604;13.438;2023-03-23T01:28:40;1.07;;;0.97;;
13090;SDS011;6611;52.604;13.438;2023-03-23T01:33:42;1.93;;;1.20;;
13090;SDS011;6611;52.604;13.438;2023-03-23T01:38:46;1.50;;;1.10;;
13090;SDS011;6611;52.604;13.438;2023-03-23T01:43:57;2.43;;;1.37;;
13090;SDS011;6611;52.604;13.438;2023-03-23T01:49:03;1.30;;;1.20;;
13090;SDS011;6611;52.604;13.438;2023-03-23T01:54:10;2.80;;;1.13;;
13090;SDS011;6611;52.604;13.438;2023-03-23T01:59:15;2.00;;;1.40;;
13090;SDS011;6611;52.604;13.438;2023-03-23T02:04:18;1.20;;;1.10;;
13090;SDS011;6611;52.604;13.438;2023-03-23T02:09:21;3.07;;;1.30;;
13090;SDS011;6611;52.604;13.438;2023-03-23T02:14:25;1.20;;;1.10;;
13090;SDS011;6611;52.604;13.438;2023-03-23T02:19:41;1.47;;;1.30;;
13090;SDS011;6611;52.604;13.438;2023-03-23T02:24:57;1.53;;;1.13;;
13090;SDS011;6611;52.604;13.438;2023-03-23T02:30:16;1.73;;;1.30;;
13090;SDS011;6611;52.604;13.438;2023-03-23T02:35:30;1.63;;;1.27;;
13090;SDS011;6611;52.604;13.438;2023-03-23T02:40:38;1.83;;;1.27;;
13090;SDS011;6611;52.604;13.438;2023-03-23T02:45:42;1.60;;;1.50;;
13090;SDS011;6611;52.604;13.438;2023-03-23T02:50:48;2.17;;;1.30;;
13090;SDS011;6611;52.604;13.438;2023-03-23T02:55:52;1.20;;;1.10;;
13090;SDS011;6611;52.604;13.438;2023-03-23T03:00:56;1.33;;;1.13;;
13090;SDS011;6611;52.604;13.438;2023-03-23T03:06:02;3.03;;;1.50;;
13090;SDS011;6611;52.604;13.438;2023-03-23T03:11:10;1.60;;;0.90;;
13090;SDS011;6611;52.604;13.438;2023-03-23T03:16:16;1.13;;;1.03;;
13090;SDS011;6611;52.604;13.438;2023-03-23T03:21:28;1.53;;;1.27;;
13090;SDS011;6611;52.604;13.438;2023-03-23T03:26:32;3.07;;;1.20;;
13090;SDS011;6611;52.604;13.438;2023-03-23T03:31:36;1.87;;;1.33;;
13090;SDS011;6611;52.604;13.438;2023-03-23T03:36:41;1.60;;;1.10;;
13090;SDS011;6611;52.604;13.438;2023-03-23T03:41:43;1.50;;;1.30;;
13090;SDS011;6611;52.604;13.438;2023-03-23T03:46:45;1.80;;;1.27;;
13090;SDS011;6611;52.604;13.438;2023-03-23T03:51:48;1.30;;;1.10;;
13090;SDS011;6611;52.604;13.438;2023-03-23T03:56:49;1.40;;;1.30;;
13090;SDS011;6611;52.604;13.438;2023-03-23T04:01:51;1.80;;;1.40;;
13090;SDS011;6611;52.604;13.438;2023-03-23T04:06:55;2.23;;;1.47;;
13090;SDS011;6611;52.604;13.438;2023-03-23T04:11:58;5.57;;;1.37;;
13090;SDS011;6611;52.604;13.438;2023-03-23T04:17:00;1.70;;;1.60;;
13090;SDS011;6611;52.604;13.438;2023-03-23T04:22:03;1.50;;;1.40;;
13090;SDS011;6611;52.604;13.438;2023-03-23T04:27:05;3.03;;;1.20;;
13090;SDS011;6611;52.604;13.438;2023-03-23T04:32:06;1.87;;;1.23;;
13090;SDS011;6611;52.604;13.438;2023-03-23T04:37:09;1.33;;;1.10;;
13090;SDS011;6611;52.604;13.438;2023-03-23T04:42:13;1.83;;;1.40;;
13090;SDS011;6611;52.604;13.438;2023-03-23T04:47:15;1.50;;;1.40;;
13090;SDS011;6611;52.604;13.438;2023-03-23T04:52:18;1.37;;;1.27;;
13090;SDS011;6611;52.604;13.438;2023-03-23T04:57:21;2.20;;;1.20;;
13090;SDS011;6611;52.604;13.438;2023-03-23T05:02:22;4.20;;;1.80;;
13090;SDS011;6611;52.604;13.438;2023-03-23T05:07:26;5.20;;;1.60;;
13090;SDS011;6611;52.604;13.438;2023-03-23T05:12:28;1.63;;;1.53;;
13090;SDS011;6611;52.604;13.438;2023-03-23T05:17:30;1.87;;;1.60;;
13090;SDS011;6611;52.604;13.438;2023-03-23T05:22:33;3.13;;;1.97;;
13090;SDS011;6611;52.604;13.438;2023-03-23T05:27:36;3.10;;;1.80;;
13090;SDS011;6611;52.604;13.438;2023-03-23T05:32:38;2.53;;;1.70;;
13090;SDS011;6611;52.604;13.438;2023-03-23T05:37:41;2.60;;;2.30;;
13090;SDS011;6611;52.604;13.438;2023-03-23T05:42:44;2.20;;;2.00;;
13090;SDS011;6611;52.604;13.438;2023-03-23T05:47:46;3.80;;;1.87;;
13090;SDS011;6611;52.604;13.438;2023-03-23T05:52:49;2.50;;;1.73;;
13090;SDS011;6611;52.604;13.438;2023-03-23T05:57:51;1.33;;;1.23;;
13090;SDS011;6611;52.604;13.438;2023-03-23T06:02:54;3.23;;;1.60;;
13090;SDS011;6611;52.604;13.438;2023-03-23T06:07:57;3.10;;;1.87;;
13090;SDS011;6611;52.604;13.438;2023-03-23T06:12:59;3.43;;;1.40;;
13090;SDS011;6611;52.604;13.438;2023-03-23T06:18:02;3.50;;;1.57;;
13090;SDS011;6611;52.604;13.438;2023-03-23T06:23:05;2.40;;;1.50;;
13090;SDS011;6611;52.604;13.438;2023-03-23T06:28:08;3.23;;;1.47;;
13090;SDS011;6611;52.604;13.438;2023-03-23T06:33:10;2.00;;;1.10;;
13090;SDS011;6611;52.604;13.438;2023-03-23T06:38:13;1.67;;;1.23;;
13090;SDS011;6611;52.604;13.438;2023-03-23T06:43:16;3.77;;;1.10;;
13090;SDS011;6611;52.604;13.438;2023-03-23T06:48:17;2.70;;;0.93;;
13090;SDS011;6611;52.604;13.438;2023-03-23T06:53:21;3.27;;;1.30;;
13090;SDS011;6611;52.604;13.438;2023-03-23T06:58:22;1.10;;;1.00;;
13090;SDS011;6611;52.604;13.438;2023-03-23T07:03:24;1.70;;;1.17;;
13090;SDS011;6611;52.604;13.438;2023-03-23T07:08:29;1.40;;;1.20;;
13090;SDS011;6611;52.604;13.438;2023-03-23T07:13:31;2.50;;;1.30;;
13090;SDS011;6611;52.604;13.438;2023-03-23T07:18:32;1.97;;;1.40;;
13090;SDS011;6611;52.604;13.438;2023-03-23T07:23:35;1.80;;;1.57;;
13090;SDS011;6611;52.604;13.438;2023-03-23T07:28:37;2.30;;;1.70;;
13090;SDS011;6611;52.604;13.438;2023-03-23T07:33:40;2.63;;;1.43;;
13090;SDS011;6611;52.604;13.438;2023-03-23T07:38:43;2.73;;;1.60;;
13090;SDS011;6611;52.604;13.438;2023-03-23T07:43:44;2.17;;;1.60;;
13090;SDS011;6611;52.604;13.438;2023-03-23T07:48:46;3.30;;;1.20;;
13090;SDS011;6611;52.604;13.438;2023-03-23T07:53:50;1.60;;;1.50;;
13090;SDS011;6611;52.604;13.438;2023-03-23T07:58:52;2.43;;;1.47;;
13090;SDS011;6611;52.604;13.438;2023-03-23T08:03:54;1.50;;;1.10;;
13090;SDS011;6611;52.604;13.438;2023-03-23T08:08:58;1.37;;;1.13;;
13090;SDS011;6611;52.604;13.438;2023-03-23T08:14:07;1.87;;;1.30;;
13090;SDS011;6611;52.604;13.438;2023-03-23T08:19:08;2.60;;;1.07;;
13090;SDS011;6611;52.604;13.438;2023-03-23T08:24:11;1.40;;;1.30;;
13090;SDS011;6611;52.604;13.438;2023-03-23T08:29:13;1.43;;;1.30;;
13090;SDS011;6611;52.604;13.438;2023-03-23T08:34:16;1.73;;;1.50;;
13090;SDS011;6611;52.604;13.438;2023-03-23T08:39:19;3.20;;;1.40;;
13090;SDS011;6611;52.604;13.438;2023-03-23T08:44:22;1.47;;;1.33;;
13090;SDS011;6611;52.604;13.438;2023-03-23T08:49:24;2.33;;;1.57;;
13090;SDS011;6611;52.604;13.438;2023-03-23T08:54:27;2.27;;;1.53;;
13090;SDS011;6611;52.604;13.438;2023-03-23T08:59:31;1.67;;;1.50;;
13090;SDS011;6611;52.604;13.438;2023-03-23T09:04:33;1.40;;;1.30;;
13090;SDS011;6611;52.604;13.438;2023-03-23T09:09:36;2.00;;;1.43;;
13090;SDS011;6611;52.604;13.438;2023-03-23T09:14:39;1.97;;;1.67;;
13090;SDS011;6611;52.604;13.438;2023-03-23T09:19:41;1.63;;;1.30;;
13090;SDS011;6611;52.604;13.438;2023-03-23T09:24:44;2.83;;;1.37;;
13090;SDS011;6611;52.604;13.438;2023-03-23T09:29:46;2.13;;;1.50;;
13090;SDS011;6611;52.604;13.438;2023-03-23T09:34:48;1.80;;;1.37;;
13090;SDS011;6611;52.604;13.438;2023-03-23T09:39:53;2.70;;;1.33;;
13090;SDS011;6611;52.604;13.438;2023-03-23T09:45:02;2.33;;;1.43;;
13090;SDS011;6611;52.604;13.438;2023-03-23T09:50:12;3.30;;;1.40;;
13090;SDS011;6611;52.604;13.438;2023-03-23T09:55:18;1.40;;;1.27;;
13090;SDS011;6611;52.604;13.438;2023-03-23T10:00:23;2.80;;;1.10;;
13090;SDS011;6611;52.604;13.438;2023-03-23T10:05:29;2.07;;;1.40;;
13090;SDS011;6611;52.604;13.438;2023-03-23T10:10:37;1.93;;;1.20;;
13090;SDS011;6611;52.604;13.438;2023-03-23T10:15:50;1.47;;;1.10;;
13090;SDS011;6611;52.604;13.438;2023-03-23T10:20:53;2.83;;;1.33;;
13090;SDS011;6611;52.604;13.438;2023-03-23T10:25:59;1.43;;;0.77;;
13090;SDS011;6611;52.604;13.438;2023-03-23T10:31:10;1.57;;;1.20;;
13090;SDS011;6611;52.604;13.438;2023-03-23T10:36:16;0.90;;;0.80;;
13090;SDS011;6611;52.604;13.438;2023-03-23T10:41:25;2.27;;;1.10;;
13090;SDS011;6611;52.604;13.438;2023-03-23T10:46:30;1.00;;;0.90;;
13090;SDS011;6611;52.604;13.438;2023-03-23T10:51:40;1.10;;;1.00;;
13090;SDS011;6611;52.604;13.438;2023-03-23T10:56:45;1.43;;;1.10;;
13090;SDS011;6611;52.604;13.438;2023-03-23T11:01:48;3.33;;;0.70;;
13090;SDS011;6611;52.604;13.438;2023-03-23T11:06:58;2.63;;;1.07;;
13090;SDS011;6611;52.604;13.438;2023-03-23T11:12:03;1.20;;;0.80;;
13090;SDS011;6611;52.604;13.438;2023-03-23T11:17:18;1.03;;;0.93;;
13090;SDS011;6611;52.604;13.438;2023-03-23T11:22:24;1.47;;;0.80;;
13090;SDS011;6611;52.604;13.438;2023-03-23T11:27:29;1.33;;;0.80;;
13090;SDS011;6611;52.604;13.438;2023-03-23T11:32:31;1.00;;;0.90;;
13090;SDS011;6611;52.604;13.438;2023-03-23T11:37:34;1.10;;;0.83;;
13090;SDS011;6611;52.604;13.438;2023-03-23T11:42:42;0.93;;;0.83;;
13090;SDS011;6611;52.604;13.438;2023-03-23T11:47:48;2.83;;;0.90;;
13090;SDS011;6611;52.604;13.438;2023-03-23T11:53:00;1.40;;;0.80;;
13090;SDS011;6611;52.604;13.438;2023-03-23T11:58:11;0.97;;;0.87;;
13090;SDS011;6611;52.604;13.438;2023-03-23T12:03:15;1.20;;;1.00;;
13090;SDS011;6611;52.604;13.438;2023-03-23T12:08:28;1.00;;;0.90;;
13090;SDS011;6611;52.604;13.438;2023-03-23T12:13:42;2.07;;;0.93;;
13090;SDS011;6611;52.604;13.438;2023-03-23T12:18:55;1.10;;;0.90;;
13090;SDS011;6611;52.604;13.438;2023-03-23T12:24:05;2.10;;;1.10;;
13090;SDS011;6611;52.604;13.438;2023-03-23T12:29:25;1.57;;;1.00;;
13090;SDS011;6611;52.604;13.438;2023-03-23T12:34:38;0.80;;;0.80;;
13090;SDS011;6611;52.604;13.438;2023-03-23T12:45:14;1.53;;;1.00;;
13090;SDS011;6611;52.604;13.438;2023-03-23T12:50:24;1.73;;;0.90;;
13090;SDS011;6611;52.604;13.438;2023-03-23T12:55:32;0.90;;;0.83;;
13090;SDS011;6611;52.604;13.438;2023-03-23T13:00:52;1.03;;;0.90;;
13090;SDS011;6611;52.604;13.438;2023-03-23T13:05:59;2.87;;;0.93;;
13090;SDS011;6611;52.604;13.438;2023-03-23T13:11:08;1.63;;;0.97;;
13090;SDS011;6611;52.604;13.438;2023-03-23T13:16:19;2.60;;;1.10;;
13090;SDS011;6611;52.604;13.438;2023-03-23T13:21:27;2.00;;;1.13;;
13090;SDS011;6611;52.604;13.438;2023-03-23T13:26:36;1.60;;;1.30;;
13090;SDS011;6611;52.604;13.438;2023-03-23T13:31:41;2.40;;;1.00;;
13090;SDS011;6611;52.604;13.438;2023-03-23T13:36:44;1.43;;;0.80;;
13090;SDS011;6611;52.604;13.438;2023-03-23T13:42:00;1.63;;;0.90;;
13090;SDS011;6611;52.604;13.438;2023-03-23T13:47:08;1.63;;;0.83;;
13090;SDS011;6611;52.604;13.438;2023-03-23T13:52:17;1.43;;;0.90;;
13090;SDS011;6611;52.604;13.438;2023-03-23T13:57:26;0.73;;;0.70;;
13090;SDS011;6611;52.604;13.438;2023-03-23T14:02:39;3.17;;;1.13;;
13090;SDS011;6611;52.604;13.438;2023-03-23T14:07:55;3.57;;;1.00;;
13090;SDS011;6611;52.604;13.438;2023-03-23T14:12:59;1.10;;;1.00;;
13090;SDS011;6611;52.604;13.438;2023-03-23T14:18:04;1.97;;;0.70;;
13090;SDS011;6611;52.604;13.438;2023-03-23T14:23:12;2.63;;;0.97;;
13090;SDS011;6611;52.604;13.438;2023-03-23T14:28:17;1.77;;;1.00;;
13090;SDS011;6611;52.604;13.438;2023-03-23T14:33:23;1.00;;;0.90;;
13090;SDS011;6611;52.604;13.438;2023-03-23T14:38:27;1.80;;;0.77;;
13090;SDS011;6611;52.604;13.438;2023-03-23T14:43:32;1.13;;;0.70;;
13090;SDS011;6611;52.604;13.438;2023-03-23T14:48:37;3.00;;;0.70;;
13090;SDS011;6611;52.604;13.438;2023-03-23T14:53:40;3.07;;;0.90;;
13090;SDS011;6611;52.604;13.438;2023-03-23T14:58:45;1.97;;;1.00;;
13090;SDS011;6611;52.604;13.438;2023-03-23T15:03:52;1.87;;;0.90;;
13090;SDS011;6611;52.604;13.438;2023-03-23T15:09:02;1.17;;;0.80;;
13090;SDS011;6611;52.604;13.438;2023-03-23T15:14:08;1.67;;;0.70;;
13090;SDS011;6611;52.604;13.438;2023-03-23T15:19:15;1.20;;;0.70;;
13090;SDS011;6611;52.604;13.438;2023-03-23T15:24:24;0.87;;;0.80;;
13090;SDS011;6611;52.604;13.438;2023-03-23T15:29:28;1.23;;;0.73;;
13090;SDS011;6611;52.604;13.438;2023-03-23T15:34:32;1.10;;;0.80;;
13090;SDS011;6611;52.604;13.438;2023-03-23T15:39:40;1.50;;;0.70;;
13090;SDS011;6611;52.604;13.438;2023-03-23T15:44:42;1.53;;;0.80;;
13090;SDS011;6611;52.604;13.438;2023-03-23T15:49:46;2.77;;;0.93;;
13090;SDS011;6611;52.604;13.438;2023-03-23T15:54:49;1.23;;;0.90;;
13090;SDS011;6611;52.604;13.438;2023-03-23T15:59:51;3.17;;;1.07;;
13090;SDS011;6611;52.604;13.438;2023-03-23T16:04:54;1.37;;;0.77;;
13090;SDS011;6611;52.604;13.438;2023-03-23T16:09:55;2.27;;;1.10;;
13090;SDS011;6611;52.604;13.438;2023-03-23T16:14:57;2.70;;;0.97;;
13090;SDS011;6611;52.604;13.438;2023-03-23T16:20:00;1.20;;;0.73;;
13090;SDS011;6611;52.604;13.438;2023-03-23T16:25:03;2.50;;;1.00;;
13090;SDS011;6611;52.604;13.438;2023-03-23T16:30:10;1.97;;;0.70;;
13090;SDS011;6611;52.604;13.438;2023-03-23T16:35:16;2.43;;;0.93;;
13090;SDS011;6611;52.604;13.438;2023-03-23T16:40:19;2.00;;;0.90;;
13090;SDS011;6611;52.604;13.438;2023-03-23T16:45:21;1.43;;;0.90;;
13090;SDS011;6611;52.604;13.438;2023-03-23T16:50:25;2.03;;;0.80;;
13090;SDS011;6611;52.604;13.438;2023-03-23T16:55:28;2.37;;;0.87;;
13090;SDS011;6611;52.604;13.438;2023-03-23T17:00:31;2.43;;;1.30;;
13090;SDS011;6611;52.604;13.438;2023-03-23T17:05:35;1.50;;;1.00;;
13090;SDS011;6611;52.604;13.438;2023-03-23T17:10:38;1.80;;;0.90;;
13090;SDS011;6611;52.604;13.438;2023-03-23T17:15:41;1.77;;;1.10;;
13090;SDS011;6611;52.604;13.438;2023-03-23T17:20:45;3.00;;;1.30;;
13090;SDS011;6611;52.604;13.438;2023-03-23T17:25:47;1.37;;;1.00;;
13090;SDS011;6611;52.604;13.438;2023-03-23T17:30:50;1.60;;;1.00;;
13090;SDS011;6611;52.604;13.438;2023-03-23T17:35:53;1.33;;;0.93;;
13090;SDS011;6611;52.604;13.438;2023-03-23T17:40:55;2.63;;;1.33;;
13090;SDS011;6611;52.604;13.438;2023-03-23T17:45:57;1.90;;;1.57;;
13090;SDS011;6611;52.604;13.438;2023-03-23T17:51:01;1.43;;;1.00;;
13090;SDS011;6611;52.604;13.438;2023-03-23T17:56:03;2.70;;;1.50;;
13090;SDS011;6611;52.604;13.438;2023-03-23T18:01:06;2.00;;;1.17;;
13090;SDS011;6611;52.604;13.438;2023-03-23T18:06:09;2.40;;;1.33;;
13090;SDS011;6611;52.604;13.438;2023-03-23T18:11:11;1.57;;;1.00;;
13090;SDS011;6611;52.604;13.438;2023-03-23T18:16:13;1.27;;;0.80;;
13090;SDS011;6611;52.604;13.438;2023-03-23T18:21:16;1.00;;;0.70;;
13090;SDS011;6611;52.604;13.438;2023-03-23T18:26:18;1.70;;;1.00;;
13090;SDS011;6611;52.604;13.438;2023-03-23T18:31:21;1.63;;;1.03;;
13090;SDS011;6611;52.604;13.438;2023-03-23T18:36:25;4.03;;;1.50;;
13090;SDS011;6611;52.604;13.438;2023-03-23T18:41:27;2.10;;;1.27;;
13090;SDS011;6611;52.604;13.438;2023-03-23T18:46:29;1.30;;;1.20;;
13090;SDS011;6611;52.604;13.438;2023-03-23T18:51:32;3.60;;;1.53;;
13090;SDS011;6611;52.604;13.438;2023-03-23T18:56:33;1.20;;;1.10;;
13090;SDS011;6611;52.604;13.438;2023-03-23T19:01:35;1.70;;;1.47;;
13090;SDS011;6611;52.604;13.438;2023-03-23T19:06:38;3.33;;;1.40;;
13090;SDS011;6611;52.604;13.438;2023-03-23T19:11:40;2.17;;;1.40;;
13090;SDS011;6611;52.604;13.438;2023-03-23T19:16:41;2.23;;;1.23;;
13090;SDS011;6611;52.604;13.438;2023-03-23T19:21:44;3.70;;;2.23;;
13090;SDS011;6611;52.604;13.438;2023-03-23T19:26:46;5.37;;;2.83;;
13090;SDS011;6611;52.604;13.438;2023-03-23T19:31:48;2.80;;;2.10;;
13090;SDS011;6611;52.604;13.438;2023-03-23T19:36:51;2.10;;;1.80;;
13090;SDS011;6611;52.604;13.438;2023-03-23T19:41:53;4.00;;;2.10;;
13090;SDS011;6611;52.604;13.438;2023-03-23T19:46:55;2.63;;;1.60;;
13090;SDS011;6611;52.604;13.438;2023-03-23T19:51:58;3.63;;;1.70;;
13090;SDS011;6611;52.604;13.438;2023-03-23T19:56:59;2.63;;;1.27;;
13090;SDS011;6611;52.604;13.438;2023-03-23T20:02:01;4.60;;;1.50;;
13090;SDS011;6611;52.604;13.438;2023-03-23T20:07:05;1.93;;;1.60;;
13090;SDS011;6611;52.604;13.438;2023-03-23T20:12:07;4.47;;;1.97;;
13090;SDS011;6611;52.604;13.438;2023-03-23T20:17:09;2.70;;;1.40;;
13090;SDS011;6611;52.604;13.438;2023-03-23T20:22:12;2.20;;;1.60;;
13090;SDS011;6611;52.604;13.438;2023-03-23T20:27:14;1.97;;;1.23;;
13090;SDS011;6611;52.604;13.438;2023-03-23T20:32:16;3.70;;;1.80;;
13090;SDS011;6611;52.604;13.438;2023-03-23T20:37:21;2.43;;;1.57;;
13090;SDS011;6611;52.604;13.438;2023-03-23T20:42:23;3.30;;;1.77;;
13090;SDS011;6611;52.604;13.438;2023-03-23T20:47:25;3.37;;;1.70;;
13090;SDS011;6611;52.604;13.438;2023-03-23T20:52:29;3.70;;;2.20;;
13090;SDS011;6611;52.604;13.438;2023-03-23T20:57:30;3.03;;;2.20;;
13090;SDS011;6611;52.604;13.438;2023-03-23T21:02:33;4.30;;;1.83;;
13090;SDS011;6611;52.604;13.438;2023-03-23T21:07:36;3.63;;;1.90;;
13090;SDS011;6611;52.604;13.438;2023-03-23T21:12:38;2.33;;;1.70;;
13090;SDS011;6611;52.604;13.438;2023-03-23T21:17:39;3.00;;;2.23;;
13090;SDS011;6611;52.604;13.438;2023-03-23T21:22:43;2.43;;;1.90;;
13090;SDS011;6611;52.604;13.438;2023-03-23T21:27:44;2.77;;;2.27;;
13090;SDS011;6611;52.604;13.438;2023-03-23T21:32:46;3.43;;;2.20;;
13090;SDS011;6611;52.604;13.438;2023-03-23T21:37:49;4.63;;;3.00;;
13090;SDS011;6611;52.604;13.438;2023-03-23T21:42:52;5.20;;;3.37;;
13090;SDS011;6611;52.604;13.438;2023-03-23T21:47:54;5.53;;;2.90;;
13090;SDS011;6611;52.604;13.438;2023-03-23T21:52:58;5.50;;;2.97;;
13090;SDS011;6611;52.604;13.438;2023-03-23T21:58:00;3.87;;;2.47;;
13090;SDS011;6611;52.604;13.438;2023-03-23T22:03:04;3.73;;;2.63;;
13090;SDS011;6611;52.604;13.438;2023-03-23T22:08:09;4.87;;;3.20;;
13090;SDS011;6611;52.604;13.438;2023-03-23T22:13:11;5.83;;;3.43;;
13090;SDS011;6611;52.604;13.438;2023-03-23T22:18:13;5.57;;;3.90;;
13090;SDS011;6611;52.604;13.438;2023-03-23T22:23:17;6.13;;;3.90;;
13090;SDS011;6611;52.604;13.438;2023-03-23T22:28:19;6.03;;;3.47;;
13090;SDS011;6611;52.604;13.438;2023-03-23T22:33:22;5.63;;;4.20;;
13090;SDS011;6611;52.604;13.438;2023-03-23T22:38:25;5.83;;;3.63;;
13090;SDS011;6611;52.604;13.438;2023-03-23T22:43:27;5.20;;;3.40;;
13090;SDS011;6611;52.604;13.438;2023-03-23T22:48:29;5.27;;;3.40;;
13090;SDS011;6611;52.604;13.438;2023-03-23T22:53:32;5.50;;;3.50;;
13090;SDS011;6611;52.604;13.438;2023-03-23T22:58:34;5.23;;;3.30;;
13090;SDS011;6611;52.604;13.438;2023-03-23T23:03:36;5.00;;;3.60;;
13090;SDS011;6611;52.604;13.438;2023-03-23T23:08:40;6.10;;;3.17;;
13090;SDS011;6611;52.604;13.438;2023-03-23T23:13:42;5.90;;;3.20;;
13090;SDS011;6611;52.604;13.438;2023-03-23T23:18:44;5.10;;;3.47;;
13090;SDS011;6611;52.604;13.438;2023-03-23T23:23:48;5.13;;;3.23;;
13090;SDS011;6611;52.604;13.438;2023-03-23T23:28:51;5.67;;;3.07;;
13090;SDS011;6611;52.604;13.438;2023-03-23T23:33:53;7.47;;;3.00;;
13090;SDS011;6611;52.604;13.438;2023-03-23T23:38:58;3.50;;;2.77;;
13090;SDS011;6611;52.604;13.438;2023-03-23T23:44:00;5.10;;;3.40;;
13090;SDS011;6611;52.604;13.438;2023-03-23T23:49:03;4.77;;;3.17;;
13090;SDS011;6611;52.604;13.438;2023-03-23T23:54:07;3.90;;;2.70;;
13090;SDS011;6611;52.604;13.438;2023-03-23T23:59:09;3.50;;;2.60;;
